createdAt,value
2018-03-17T00:01:27.735Z,95565.78
2018-03-17T00:03:55.220Z,95566.82
2018-03-17T00:06:22.699Z,95569.17
2018-03-17T00:08:50.410Z,95572.64
2018-03-17T00:11:17.842Z,95575.15
2018-03-17T00:13:45.368Z,95566.45
2018-03-17T00:16:13.319Z,95565.72
2018-03-17T00:18:40.753Z,95573.63
2018-03-17T00:21:08.231Z,95573.89
2018-03-17T00:23:35.704Z,95566.75
2018-03-17T00:26:03.654Z,95573.37
2018-03-17T00:28:31.128Z,95573.15
2018-03-17T00:30:58.623Z,95566.31
2018-03-17T00:33:26.092Z,95577.30
2018-03-17T00:35:53.491Z,95572.59
2018-03-17T00:38:20.922Z,95572.70
2018-03-17T00:40:48.373Z,95572.92
2018-03-17T00:43:15.861Z,95570.02
2018-03-17T00:45:43.318Z,95574.52
2018-03-17T00:48:10.832Z,95571.42
2018-03-17T00:50:38.259Z,95563.59
2018-03-17T00:53:05.673Z,95570.60
2018-03-17T00:55:33.067Z,95567.88
2018-03-17T00:58:00.542Z,95575.11
2018-03-17T01:00:28.138Z,95567.17
2018-03-17T01:02:55.480Z,95567.23
2018-03-17T01:05:22.913Z,95564.97
2018-03-17T01:07:50.369Z,95561.61
2018-03-17T01:10:17.930Z,95559.83
2018-03-17T01:12:45.441Z,95557.33
2018-03-17T01:15:12.881Z,95549.63
2018-03-17T01:17:40.513Z,95548.23
2018-03-17T01:20:07.976Z,95559.49
2018-03-17T01:22:35.401Z,95547.11
2018-03-17T01:25:02.858Z,95543.55
2018-03-17T01:27:30.611Z,95544.94
2018-03-17T01:29:58.052Z,95548.27
2018-03-17T01:32:25.525Z,95549.41
2018-03-17T01:34:52.994Z,95544.72
2018-03-17T01:37:20.424Z,95530.36
2018-03-17T01:39:47.875Z,95527.68
2018-03-17T01:42:15.885Z,95527.41
2018-03-17T01:44:43.316Z,95520.69
2018-03-17T01:47:10.790Z,95508.78
2018-03-17T01:49:38.258Z,95508.62
2018-03-17T01:52:05.673Z,95508.55
2018-03-17T01:54:33.089Z,95506.02
2018-03-17T01:57:00.539Z,95509.69
2018-03-17T01:59:27.998Z,95506.41
2018-03-17T02:01:55.565Z,95501.89
2018-03-17T02:04:22.985Z,95501.55
2018-03-17T02:06:50.467Z,95496.64
2018-03-17T02:09:17.881Z,95488.41
2018-03-17T02:11:45.384Z,95475.94
2018-03-17T02:14:12.807Z,95474.36
2018-03-17T02:16:40.221Z,95472.45
2018-03-17T02:19:07.652Z,95469.52
2018-03-17T02:21:35.185Z,95467.28
2018-03-17T02:24:02.626Z,95461.30
2018-03-17T02:26:30.061Z,95457.02
2018-03-17T02:28:57.465Z,95459.67
2018-03-17T02:31:24.935Z,95450.83
2018-03-17T02:33:52.353Z,95450.01
2018-03-17T02:36:19.826Z,95442.92
2018-03-17T02:38:47.979Z,95443.40
2018-03-17T02:41:15.456Z,95440.95
2018-03-17T02:43:43.106Z,95434.36
2018-03-17T02:46:10.533Z,95432.64
2018-03-17T02:48:37.988Z,95434.06
2018-03-17T02:51:05.436Z,95426.58
2018-03-17T02:53:32.886Z,95429.95
2018-03-17T02:56:00.309Z,95427.13
2018-03-17T02:58:27.772Z,95419.97
2018-03-17T03:00:55.229Z,95416.61
2018-03-17T03:03:22.687Z,95419.56
2018-03-17T03:05:50.115Z,95407.50
2018-03-17T03:08:17.577Z,95403.45
2018-03-17T03:10:45.060Z,95403.19
2018-03-17T03:13:12.455Z,95403.34
2018-03-17T03:15:39.885Z,95393.80
2018-03-17T03:18:07.325Z,95387.09
2018-03-17T03:20:34.729Z,95385.30
2018-03-17T03:23:02.224Z,95380.72
2018-03-17T03:25:29.659Z,95380.05
2018-03-17T03:27:57.401Z,95383.48
2018-03-17T03:30:24.844Z,95383.48
2018-03-17T03:32:52.306Z,95379.69
2018-03-17T03:35:19.696Z,95376.52
2018-03-17T03:37:47.188Z,95378.12
2018-03-17T03:40:14.626Z,95368.16
2018-03-17T03:42:42.083Z,95366.53
2018-03-17T03:45:09.773Z,95364.44
2018-03-17T03:47:37.246Z,95365.33
2018-03-17T03:50:04.725Z,95363.02
2018-03-17T03:52:32.338Z,95359.11
2018-03-17T03:54:59.769Z,95356.42
2018-03-17T03:57:27.240Z,95356.42
2018-03-17T03:59:54.690Z,95355.80
2018-03-17T04:02:22.152Z,95354.48
2018-03-17T04:04:49.616Z,95351.58
2018-03-17T04:07:17.013Z,95352.59
2018-03-17T04:09:44.517Z,95342.59
2018-03-17T04:12:11.971Z,95340.27
2018-03-17T04:14:39.404Z,95334.48
2018-03-17T04:17:06.873Z,95337.23
2018-03-17T04:19:34.466Z,95328.37
2018-03-17T04:22:01.909Z,95329.72
2018-03-17T04:24:29.331Z,95322.52
2018-03-17T04:26:56.752Z,95325.31
2018-03-17T04:29:24.217Z,95320.31
2018-03-17T04:31:51.646Z,95314.98
2018-03-17T04:34:19.069Z,95319.98
2018-03-17T04:36:46.477Z,95314.46
2018-03-17T04:39:13.959Z,95313.64
2018-03-17T04:41:41.371Z,95312.36
2018-03-17T04:44:08.800Z,95312.22
2018-03-17T04:46:36.299Z,95305.73
2018-03-17T04:49:03.750Z,95299.70
2018-03-17T04:51:31.234Z,95301.69
2018-03-17T04:53:58.676Z,95296.89
2018-03-17T04:56:26.099Z,95289.07
2018-03-17T04:58:53.529Z,95285.26
2018-03-17T05:01:21.725Z,95282.49
2018-03-17T05:03:49.167Z,95277.47
2018-03-17T05:06:16.615Z,95276.69
2018-03-17T05:08:44.072Z,95272.85
2018-03-17T05:11:11.494Z,95265.84
2018-03-17T05:13:38.920Z,95263.75
2018-03-17T05:16:06.349Z,95259.83
2018-03-17T05:18:33.845Z,95255.95
2018-03-17T05:21:01.436Z,95253.83
2018-03-17T05:23:28.974Z,95248.02
2018-03-17T05:25:56.411Z,95240.89
2018-03-17T05:28:23.934Z,95234.80
2018-03-17T05:30:52.310Z,95229.80
2018-03-17T05:33:19.963Z,95229.80
2018-03-17T05:35:47.352Z,95226.81
2018-03-17T05:38:15.153Z,95225.07
2018-03-17T05:40:42.617Z,95222.95
2018-03-17T05:43:10.014Z,95224.92
2018-03-17T05:45:37.448Z,95221.26
2018-03-17T05:48:04.870Z,95212.24
2018-03-17T05:50:32.310Z,95215.79
2018-03-17T05:52:59.732Z,95212.66
2018-03-17T05:55:27.172Z,95211.48
2018-03-17T05:57:54.793Z,95202.12
2018-03-17T06:00:22.213Z,95205.31
2018-03-17T06:02:49.692Z,95204.44
2018-03-17T06:05:17.133Z,95207.58
2018-03-17T06:07:44.601Z,95203.45
2018-03-17T06:10:12.048Z,95204.58
2018-03-17T06:12:40.292Z,95210.86
2018-03-17T06:15:07.758Z,95206.08
2018-03-17T06:17:35.205Z,95204.20
2018-03-17T06:20:02.663Z,95205.70
2018-03-17T06:22:30.243Z,95206.33
2018-03-17T06:24:57.713Z,95199.60
2018-03-17T06:27:25.466Z,95200.62
2018-03-17T06:29:52.898Z,95201.59
2018-03-17T06:32:20.334Z,95199.81
2018-03-17T06:34:48.734Z,95198.87
2018-03-17T06:37:16.266Z,95198.27
2018-03-17T06:39:43.919Z,95190.44
2018-03-17T06:42:11.758Z,95193.72
2018-03-17T06:44:39.189Z,95190.44
2018-03-17T06:47:06.685Z,95191.94
2018-03-17T06:49:34.153Z,95191.87
2018-03-17T06:52:01.571Z,95195.05
2018-03-17T06:54:29.000Z,95192.23
2018-03-17T06:56:56.387Z,95186.80
2018-03-17T06:59:24.732Z,95192.06
2018-03-17T07:01:52.217Z,95185.81
2018-03-17T07:04:19.703Z,95193.11
2018-03-17T07:06:47.256Z,95185.23
2018-03-17T07:09:15.043Z,95187.28
2018-03-17T07:11:42.575Z,95179.62
2018-03-17T07:14:10.164Z,95184.67
2018-03-17T07:16:37.649Z,95179.22
2018-03-17T07:19:05.140Z,95177.62
2018-03-17T07:21:32.709Z,95178.70
2018-03-17T07:24:00.267Z,95177.03
2018-03-17T07:26:27.780Z,95176.44
2018-03-17T07:28:55.254Z,95175.13
2018-03-17T07:31:22.697Z,95167.80
2018-03-17T07:33:50.270Z,95163.06
2018-03-17T07:36:17.693Z,95165.97
2018-03-17T07:38:45.154Z,95167.09
2018-03-17T07:41:12.614Z,95161.66
2018-03-17T07:43:40.033Z,95158.05
2018-03-17T07:46:07.510Z,95156.31
2018-03-17T07:48:34.981Z,95154.13
2018-03-17T07:51:02.512Z,95153.05
2018-03-17T07:53:29.986Z,95147.02
2018-03-17T07:55:57.612Z,95143.77
2018-03-17T07:58:25.085Z,95147.06
2018-03-17T08:03:25.250Z,95151.16
2018-03-17T08:05:53.056Z,95156.13
2018-03-17T08:08:20.516Z,95147.06
2018-03-17T08:10:48.034Z,95149.86
2018-03-17T08:13:15.467Z,95137.56
2018-03-17T08:15:42.940Z,95145.18
2018-03-17T08:18:10.472Z,95140.34
2018-03-17T08:20:38.596Z,95138.36
2018-03-17T08:23:06.090Z,95138.23
2018-03-17T08:25:33.560Z,95139.27
2018-03-17T08:28:01.001Z,95139.45
2018-03-17T08:30:29.881Z,95142.97
2018-03-17T08:32:57.359Z,95130.47
2018-03-17T08:35:24.882Z,95139.95
2018-03-17T08:37:52.346Z,95127.10
2018-03-17T08:40:19.830Z,95122.63
2018-03-17T08:42:47.259Z,95120.47
2018-03-17T08:45:14.892Z,95123.63
2018-03-17T08:47:42.361Z,95126.79
2018-03-17T08:50:09.776Z,95116.47
2018-03-17T08:52:37.209Z,95122.13
2018-03-17T08:55:04.809Z,95130.91
2018-03-17T08:57:32.219Z,95129.30
2018-03-17T08:59:59.620Z,95125.02
2018-03-17T09:02:27.157Z,95130.03
2018-03-17T09:04:54.883Z,95126.19
2018-03-17T09:07:22.308Z,95123.78
2018-03-17T09:09:49.753Z,95122.81
2018-03-17T09:12:17.214Z,95121.50
2018-03-17T09:14:44.672Z,95119.59
2018-03-17T09:17:12.080Z,95110.84
2018-03-17T09:19:39.624Z,95116.16
2018-03-17T09:22:07.118Z,95116.20
2018-03-17T09:24:34.562Z,95114.92
2018-03-17T09:27:01.987Z,95120.97
2018-03-17T09:29:29.799Z,95114.60
2018-03-17T09:31:57.295Z,95117.22
2018-03-17T09:34:24.722Z,95111.46
2018-03-17T09:36:52.498Z,95106.23
2018-03-17T09:39:19.992Z,95115.08
2018-03-17T09:41:47.420Z,95112.47
2018-03-17T09:44:14.895Z,95109.23
2018-03-17T09:49:16.233Z,95111.98
2018-03-17T09:51:43.762Z,95111.27
2018-03-17T09:54:11.325Z,95111.36
2018-03-17T09:56:38.800Z,95107.61
2018-03-17T09:59:06.258Z,95098.97
2018-03-17T10:01:33.720Z,95099.38
2018-03-17T10:04:01.170Z,95100.80
2018-03-17T10:06:28.773Z,95104.83
2018-03-17T10:08:56.259Z,95100.64
2018-03-17T10:11:24.144Z,95101.88
2018-03-17T10:13:51.629Z,95097.52
2018-03-17T10:16:19.145Z,95097.98
2018-03-17T10:18:46.621Z,95098.31
2018-03-17T10:21:14.098Z,95089.45
2018-03-17T10:23:41.556Z,95090.69
2018-03-17T10:26:09.308Z,95085.91
2018-03-17T10:28:36.799Z,95081.01
2018-03-17T10:31:04.310Z,95081.34
2018-03-17T10:33:31.751Z,95083.49
2018-03-17T10:35:59.258Z,95086.50
2018-03-17T10:38:26.678Z,95085.59
2018-03-17T10:40:54.097Z,95081.23
2018-03-17T10:43:21.560Z,95080.11
2018-03-17T10:45:49.088Z,95078.88
2018-03-17T10:48:16.770Z,95078.31
2018-03-17T10:50:44.481Z,95074.73
2018-03-17T10:53:11.936Z,95075.25
2018-03-17T10:55:39.390Z,95074.30
2018-03-17T10:58:06.967Z,95073.16
2018-03-17T11:00:34.472Z,95070.75
2018-03-17T11:03:02.034Z,95069.55
2018-03-17T11:05:29.513Z,95061.16
2018-03-17T11:07:56.982Z,95061.94
2018-03-17T11:10:24.469Z,95057.98
2018-03-17T11:12:52.406Z,95060.02
2018-03-17T11:15:19.958Z,95057.30
2018-03-17T11:17:47.701Z,95060.13
2018-03-17T11:20:15.229Z,95052.63
2018-03-17T11:22:42.679Z,95048.61
2018-03-17T11:25:10.201Z,95048.52
2018-03-17T11:27:37.746Z,95043.05
2018-03-17T11:30:05.232Z,95040.30
2018-03-17T11:32:33.167Z,95048.13
2018-03-17T11:35:00.611Z,95048.67
2018-03-17T11:37:28.072Z,95041.16
2018-03-17T11:39:56.191Z,95041.55
2018-03-17T11:42:23.632Z,95036.32
2018-03-17T11:44:51.074Z,95033.54
2018-03-17T11:47:20.040Z,95042.12
2018-03-17T11:49:48.355Z,95030.92
2018-03-17T11:52:15.828Z,95028.15
2018-03-17T11:54:43.304Z,95028.36
2018-03-17T11:57:10.986Z,95027.97
2018-03-17T11:59:38.655Z,95020.77
2018-03-17T12:02:06.106Z,95009.08
2018-03-17T12:04:33.575Z,95015.02
2018-03-17T12:07:01.100Z,95015.80
2018-03-17T12:09:28.626Z,95015.31
2018-03-17T12:11:56.073Z,95007.89
2018-03-17T12:14:23.473Z,95006.04
2018-03-17T12:16:51.919Z,95013.47
2018-03-17T12:19:19.543Z,95005.62
2018-03-17T12:21:46.977Z,95006.27
2018-03-17T12:24:15.151Z,94995.42
2018-03-17T12:26:42.605Z,95003.03
2018-03-17T12:29:10.027Z,94994.70
2018-03-17T12:31:37.589Z,94992.98
2018-03-17T12:34:05.061Z,95000.20
2018-03-17T12:36:33.421Z,94999.66
2018-03-17T12:39:00.841Z,94996.64
2018-03-17T12:41:28.244Z,94996.56
2018-03-17T12:43:55.694Z,94995.66
2018-03-17T12:46:23.284Z,94992.05
2018-03-17T12:48:51.439Z,94988.45
2018-03-17T12:51:18.966Z,94982.98
2018-03-17T12:53:46.349Z,94979.30
2018-03-17T12:56:13.799Z,94982.09
2018-03-17T12:58:41.278Z,94989.09
2018-03-17T13:01:08.862Z,94991.85
2018-03-17T13:03:36.355Z,94994.27
2018-03-17T13:06:03.834Z,94994.11
2018-03-17T13:08:31.317Z,94993.64
2018-03-17T13:10:58.763Z,94992.52
2018-03-17T13:13:26.209Z,94988.61
2018-03-17T13:15:53.709Z,94989.45
2018-03-17T13:18:21.216Z,95001.67
2018-03-17T13:20:48.649Z,94988.70
2018-03-17T13:23:16.929Z,94992.63
2018-03-17T13:25:44.477Z,94983.29
2018-03-17T13:28:29.417Z,94988.91
2018-03-17T13:30:57.686Z,94991.39
2018-03-17T13:33:25.816Z,94994.25
2018-03-17T13:36:05.040Z,94994.67
2018-03-17T13:38:32.536Z,95006.24
2018-03-17T13:40:59.987Z,95005.19
2018-03-17T13:43:27.418Z,95004.16
2018-03-17T13:45:54.836Z,95007.39
2018-03-17T13:48:22.347Z,95005.67
2018-03-17T13:50:50.005Z,95004.79
2018-03-17T13:53:17.447Z,95009.45
2018-03-17T13:55:44.893Z,95007.20
2018-03-17T13:58:12.365Z,95012.55
2018-03-17T14:00:39.857Z,95011.16
2018-03-17T14:03:07.303Z,95016.95
2018-03-17T14:05:34.731Z,95018.08
2018-03-17T14:08:02.125Z,95020.27
2018-03-17T14:10:29.594Z,95027.22
2018-03-17T14:12:57.061Z,95032.11
2018-03-17T14:15:24.667Z,95024.77
2018-03-17T14:20:26.003Z,95028.31
2018-03-17T14:22:53.482Z,95028.20
2018-03-17T14:25:20.910Z,95030.02
2018-03-17T14:27:48.434Z,95032.59
2018-03-17T14:30:15.880Z,95030.80
2018-03-17T14:32:43.897Z,95030.33
2018-03-17T14:35:11.368Z,95033.09
2018-03-17T14:37:38.798Z,95036.34
2018-03-17T14:40:06.220Z,95032.09
2018-03-17T14:42:33.672Z,95032.77
2018-03-17T14:45:01.103Z,95030.56
2018-03-17T14:47:28.548Z,95028.00
2018-03-17T14:49:56.115Z,95036.19
2018-03-17T14:52:23.515Z,95037.06
2018-03-17T14:54:51.061Z,95041.39
2018-03-17T14:57:18.555Z,95041.69
2018-03-17T14:59:45.976Z,95039.01
2018-03-17T15:02:13.473Z,95047.09
2018-03-17T15:04:40.905Z,95044.36
2018-03-17T15:07:08.370Z,95049.60
2018-03-17T15:09:35.945Z,95044.36
2018-03-17T15:12:03.363Z,95042.06
2018-03-17T15:14:30.787Z,95054.37
2018-03-17T15:16:58.188Z,95053.31
2018-03-17T15:19:25.749Z,95046.00
2018-03-17T15:21:53.180Z,95056.22
2018-03-17T15:24:20.685Z,95046.34
2018-03-17T15:26:48.182Z,95053.36
2018-03-17T15:29:15.598Z,95053.27
2018-03-17T15:31:43.064Z,95051.05
2018-03-17T15:34:10.508Z,95055.98
2018-03-17T15:36:37.941Z,95056.36
2018-03-17T15:39:05.384Z,95053.52
2018-03-17T15:41:32.820Z,95043.66
2018-03-17T15:44:00.216Z,95050.15
2018-03-17T15:46:27.665Z,95056.38
2018-03-17T15:48:55.155Z,95048.74
2018-03-17T15:51:22.623Z,95044.93
2018-03-17T15:53:50.122Z,95052.05
2018-03-17T15:56:17.561Z,95036.55
2018-03-17T15:58:44.986Z,95045.94
2018-03-17T16:01:12.401Z,95040.86
2018-03-17T16:03:39.964Z,95041.63
2018-03-17T16:06:07.375Z,95044.33
2018-03-17T16:08:34.836Z,95043.53
2018-03-17T16:11:02.446Z,95043.25
2018-03-17T16:13:29.861Z,95042.50
2018-03-17T16:15:58.385Z,95047.55
2018-03-17T16:18:25.883Z,95043.54
2018-03-17T16:20:53.539Z,95046.33
2018-03-17T16:23:21.920Z,95049.33
2018-03-17T16:25:49.364Z,95052.91
2018-03-17T16:28:16.791Z,95052.63
2018-03-17T16:30:45.058Z,95060.30
2018-03-17T16:33:12.614Z,95060.45
2018-03-17T16:35:40.011Z,95065.94
2018-03-17T16:38:07.459Z,95065.27
2018-03-17T16:40:34.886Z,95063.91
2018-03-17T16:43:02.381Z,95069.47
2018-03-17T16:45:29.826Z,95072.61
2018-03-17T16:47:57.402Z,95071.08
2018-03-17T16:50:24.887Z,95068.71
2018-03-17T16:52:53.323Z,95065.62
2018-03-17T16:55:20.882Z,95069.80
2018-03-17T16:57:48.318Z,95065.33
2018-03-17T17:00:15.739Z,95058.17
2018-03-17T17:02:43.274Z,95067.80
2018-03-17T17:05:11.183Z,95077.70
2018-03-17T17:07:38.612Z,95066.02
2018-03-17T17:10:06.074Z,95070.18
2018-03-17T17:12:33.506Z,95068.41
2018-03-17T17:15:00.939Z,95078.30
2018-03-17T17:17:28.458Z,95072.67
2018-03-17T17:19:55.865Z,95083.07
2018-03-17T17:22:24.346Z,95081.36
2018-03-17T17:24:51.724Z,95081.35
2018-03-17T17:27:19.222Z,95085.55
2018-03-17T17:29:46.709Z,95084.52
2018-03-17T17:32:14.126Z,95095.30
2018-03-17T17:34:41.556Z,95096.32
2018-03-17T17:37:09.011Z,95095.26
2018-03-17T17:39:36.504Z,95097.28
2018-03-17T17:42:03.883Z,95102.38
2018-03-17T17:44:31.359Z,95106.13
2018-03-17T17:46:58.739Z,95109.72
2018-03-17T17:49:26.380Z,95112.30
2018-03-17T17:51:54.086Z,95118.73
2018-03-17T17:54:21.541Z,95119.16
2018-03-17T17:56:49.003Z,95122.97
2018-03-17T17:59:16.650Z,95122.08
2018-03-17T18:01:44.302Z,95127.80
2018-03-17T18:04:11.739Z,95125.94
2018-03-17T18:06:39.231Z,95125.85
2018-03-17T18:09:06.846Z,95128.87
2018-03-17T18:11:34.244Z,95123.58
2018-03-17T18:14:01.745Z,95129.28
2018-03-17T18:16:29.166Z,95122.76
2018-03-17T18:18:56.614Z,95137.00
2018-03-17T18:21:24.003Z,95139.05
2018-03-17T18:23:51.437Z,95141.89
2018-03-17T18:26:18.866Z,95140.77
2018-03-17T18:28:46.270Z,95144.63
2018-03-17T18:31:13.737Z,95144.58
2018-03-17T18:33:41.320Z,95147.02
2018-03-17T18:36:08.785Z,95156.14
2018-03-17T18:38:36.282Z,95150.85
2018-03-17T18:41:03.730Z,95154.84
2018-03-17T18:43:31.269Z,95148.25
2018-03-17T18:45:58.871Z,95148.73
2018-03-17T18:48:26.373Z,95152.61
2018-03-17T18:50:53.827Z,95145.76
2018-03-17T18:53:21.269Z,95152.89
2018-03-17T18:55:48.757Z,95150.75
2018-03-17T18:58:16.189Z,95145.80
2018-03-17T19:00:43.881Z,95149.28
2018-03-17T19:03:11.501Z,95157.55
2018-03-17T19:05:38.975Z,95154.16
2018-03-17T19:08:06.388Z,95152.86
2018-03-17T19:10:34.483Z,95161.67
2018-03-17T19:13:01.947Z,95157.33
2018-03-17T19:15:29.386Z,95150.97
2018-03-17T19:17:57.760Z,95160.08
2018-03-17T19:20:25.294Z,95154.53
2018-03-17T19:22:52.770Z,95156.88
2018-03-17T19:25:20.251Z,95145.94
2018-03-17T19:27:47.804Z,95149.83
2018-03-17T19:30:15.349Z,95147.70
2018-03-17T19:32:42.816Z,95150.83
2018-03-17T19:35:10.263Z,95152.52
2018-03-17T19:37:37.731Z,95151.25
2018-03-17T19:40:05.245Z,95149.87
2018-03-17T19:42:32.702Z,95151.03
2018-03-17T19:45:00.164Z,95154.37
2018-03-17T19:47:27.573Z,95148.03
2018-03-17T19:49:55.158Z,95148.57
2018-03-17T19:52:22.619Z,95152.23
2018-03-17T19:54:50.046Z,95150.55
2018-03-17T19:57:17.723Z,95147.45
2018-03-17T19:59:45.117Z,95155.98
2018-03-17T20:02:12.548Z,95150.17
2018-03-17T20:04:40.041Z,95148.77
2018-03-17T20:07:07.586Z,95150.50
2018-03-17T20:09:35.578Z,95154.59
2018-03-17T20:12:03.147Z,95154.37
2018-03-17T20:14:30.672Z,95148.86
2018-03-17T20:16:58.103Z,95147.30
2018-03-17T20:19:25.658Z,95152.11
2018-03-17T20:21:53.145Z,95151.47
2018-03-17T20:24:21.554Z,95146.70
2018-03-17T20:26:49.866Z,95148.08
2018-03-17T20:29:17.284Z,95143.70
2018-03-17T20:31:44.798Z,95148.05
2018-03-17T20:34:12.212Z,95146.67
2018-03-17T20:36:39.949Z,95149.20
2018-03-17T20:39:07.390Z,95150.69
2018-03-17T20:41:34.840Z,95151.73
2018-03-17T20:44:02.288Z,95151.52
2018-03-17T20:46:30.584Z,95155.90
2018-03-17T20:48:58.134Z,95149.46
2018-03-17T20:51:25.710Z,95151.66
2018-03-17T20:53:53.222Z,95145.08
2018-03-17T20:56:21.040Z,95150.36
2018-03-17T20:58:48.473Z,95141.95
2018-03-17T21:01:16.172Z,95157.45
2018-03-17T21:03:43.607Z,95153.33
2018-03-17T21:06:11.188Z,95150.88
2018-03-17T21:08:38.645Z,95152.28
2018-03-17T21:11:06.113Z,95158.34
2018-03-17T21:13:34.080Z,95152.50
2018-03-17T21:16:01.789Z,95157.93
2018-03-17T21:18:29.205Z,95155.92
2018-03-17T21:20:56.636Z,95162.45
2018-03-17T21:23:24.517Z,95156.95
2018-03-17T21:25:52.183Z,95149.92
2018-03-17T21:28:19.796Z,95150.22
2018-03-17T21:30:47.196Z,95146.13
2018-03-17T21:33:14.641Z,95154.66
2018-03-17T21:35:42.064Z,95163.20
2018-03-17T21:38:09.499Z,95159.02
2018-03-17T21:40:36.985Z,95159.24
2018-03-17T21:43:04.461Z,95155.07
2018-03-17T21:45:31.994Z,95156.06
2018-03-17T21:47:59.422Z,95156.15
2018-03-17T21:50:26.857Z,95160.27
2018-03-17T21:52:54.298Z,95158.88
2018-03-17T21:55:21.928Z,95158.52
2018-03-17T21:57:49.390Z,95158.20
2018-03-17T22:00:16.806Z,95154.26
2018-03-17T22:02:44.224Z,95160.64
2018-03-17T22:05:11.687Z,95163.48
2018-03-17T22:07:39.165Z,95152.53
2018-03-17T22:10:06.589Z,95154.78
2018-03-17T22:12:34.043Z,95152.81
2018-03-17T22:15:01.563Z,95143.13
2018-03-17T22:17:28.961Z,95149.64
2018-03-17T22:19:56.412Z,95145.42
2018-03-17T22:22:23.861Z,95146.03
2018-03-17T22:24:51.286Z,95144.89
2018-03-17T22:27:18.742Z,95142.41
2018-03-17T22:29:46.147Z,95141.86
2018-03-17T22:32:14.228Z,95142.16
2018-03-17T22:34:42.200Z,95133.64
2018-03-17T22:37:09.635Z,95137.47
2018-03-17T22:39:37.102Z,95133.50
2018-03-17T22:42:04.653Z,95142.91
2018-03-17T22:44:32.101Z,95143.36
2018-03-17T22:46:59.651Z,95147.38
2018-03-17T22:49:27.121Z,95143.39
2018-03-17T22:51:54.612Z,95134.24
2018-03-17T22:54:22.342Z,95135.47
2018-03-17T22:56:50.535Z,95126.98
2018-03-17T22:59:18.029Z,95133.80
2018-03-17T23:01:45.501Z,95136.29
2018-03-17T23:04:12.991Z,95136.44
2018-03-17T23:06:40.426Z,95140.00
2018-03-17T23:09:07.874Z,95134.72
2018-03-17T23:11:35.265Z,95134.80
2018-03-17T23:14:02.842Z,95129.59
2018-03-17T23:16:30.350Z,95131.67
2018-03-17T23:18:57.798Z,95128.00
2018-03-17T23:21:25.184Z,95128.63
2018-03-17T23:23:52.765Z,95133.28
2018-03-17T23:26:20.195Z,95134.61
2018-03-17T23:28:47.977Z,95137.70
2018-03-17T23:31:15.533Z,95133.09
2018-03-17T23:33:43.006Z,95125.88
2018-03-17T23:36:10.521Z,95124.27
2018-03-17T23:38:38.006Z,95112.89
2018-03-17T23:41:06.171Z,95119.47
2018-03-17T23:43:33.558Z,95117.98
2018-03-17T23:46:01.043Z,95117.61
2018-03-17T23:48:28.567Z,95110.63
2018-03-17T23:50:56.012Z,95107.53
2018-03-17T23:53:23.483Z,95107.37
2018-03-17T23:55:50.961Z,95099.80
2018-03-17T23:58:18.363Z,95108.46
